Time;durP1;ratioP1;P1;durP2;ratioP2;P2;SDS_P1;SDS_P2;PMS_P1;PMS_P2;Temp;Humidity;BMP_temperature;BMP_pressure;BME280_temperature;BME280_humidity;BME280_pressure;Samples;Min_cycle;Max_cycle;Signal;HPM_P1;HPM_P2
2023/03/29 00:01:24;;;;;;;;;;;;;;;6.22;100.00;96733.91;5059078;28;19975;-77
2023/03/29 00:03:50;;;;;;;;;;;;;;;6.18;100.00;96732.66;5076228;28;20007;-78
2023/03/29 00:06:20;;;;;;;;;;;;;;;6.15;100.00;96730.34;5058529;28;19954;-78
2023/03/29 00:08:49;;;;;;;;;;;;;;;6.09;100.00;96731.97;5067416;28;20025;-78
2023/03/29 00:11:16;;;;;;;;;;;;;;;6.04;100.00;96734.38;5056746;28;19924;-77
2023/03/29 00:13:43;;;;;;;;;;;;;;;6.04;100.00;96743.25;5060294;28;19925;-78
2023/03/29 00:16:12;;;;;;;;;;;;;;;6.08;100.00;96749.91;5068492;28;20155;-79
2023/03/29 00:18:39;;;;;;;;;;;;;;;6.15;100.00;96743.75;5063126;28;20015;-78
2023/03/29 00:21:06;;;;;;;;;;;;;;;6.19;100.00;96743.19;5067126;28;19924;-78
2023/03/29 00:23:32;;;;;;;;;;;;;;;6.16;100.00;96723.97;5064344;28;19924;-78
2023/03/29 00:25:59;;;;;;;;;;;;;;;6.15;100.00;96709.75;5060977;28;20018;-79
2023/03/29 00:28:26;;;;;;;;;;;;;;;6.07;100.00;96748.25;5060713;28;19929;-78
2023/03/29 00:30:53;;;;;;;;;;;;;;;6.05;100.00;96758.31;5056425;28;19924;-78
2023/03/29 00:33:21;;;;;;;;;;;;;;;6.02;100.00;96773.97;5057254;28;19929;-78
2023/03/29 00:35:49;;;;;;;;;;;;;;;6.04;100.00;96791.50;5056502;28;19928;-78
2023/03/29 00:38:16;;;;;;;;;;;;;;;6.11;100.00;96812.22;5057552;28;19936;-78
2023/03/29 00:40:43;;;;;;;;;;;;;;;6.18;100.00;96805.88;5074912;28;20144;-77
2023/03/29 00:43:11;;;;;;;;;;;;;;;6.23;100.00;96806.13;5064237;28;19935;-78
2023/03/29 00:45:38;;;;;;;;;;;;;;;6.26;100.00;96811.13;5066477;28;19931;-77
2023/03/29 00:48:06;;;;;;;;;;;;;;;6.29;100.00;96817.97;5065930;28;19924;-78
2023/03/29 00:50:38;;;;;;;;;;;;;;;6.29;100.00;96807.25;5056706;28;19925;-78
2023/03/29 00:53:07;;;;;;;;;;;;;;;6.23;100.00;96794.56;5066983;28;19924;-79
2023/03/29 00:55:36;;;;;;;;;;;;;;;6.20;100.00;96781.56;5067330;28;19924;-78
2023/03/29 00:58:05;;;;;;;;;;;;;;;6.09;100.00;96788.28;5062036;28;19957;-78
2023/03/29 01:00:34;;;;;;;;;;;;;;;6.11;100.00;96812.22;5071611;28;19956;-79
2023/03/29 01:03:05;;;;;;;;;;;;;;;6.04;100.00;96807.59;5074670;28;20993;-78
2023/03/29 01:06:00;;;;;;;;;;;;;;;5.99;100.00;96809.19;5055219;28;19932;-78
2023/03/29 01:08:29;;;;;;;;;;;;;;;5.80;100.00;96805.25;5053361;28;19968;-78
2023/03/29 01:10:58;;;;;;;;;;;;;;;5.68;100.00;96812.13;5062226;28;19975;-77
2023/03/29 01:13:28;;;;;;;;;;;;;;;5.75;100.00;96799.63;5052466;28;19938;-77
2023/03/29 01:15:57;;;;;;;;;;;;;;;5.75;100.00;96801.47;5073944;28;20198;-78
2023/03/29 01:18:24;;;;;;;;;;;;;;;5.69;100.00;96792.34;5067136;28;19936;-77
2023/03/29 01:21:03;;;;;;;;;;;;;;;5.60;100.00;96797.00;5072777;28;19924;-78
2023/03/29 01:23:45;;;;;;;;;;;;;;;5.67;100.00;96805.09;5079464;28;19924;-77
2023/03/29 01:26:17;;;;;;;;;;;;;;;5.73;100.00;96809.69;5064398;28;19931;-77
2023/03/29 01:28:47;;;;;;;;;;;;;;;5.71;100.00;96815.25;5057777;28;19925;-77
2023/03/29 01:31:17;;;;;;;;;;;;;;;5.69;100.00;96793.19;5062918;28;19924;-77
2023/03/29 01:33:46;;;;;;;;;;;;;;;5.72;100.00;96791.97;5061540;28;19932;-77
2023/03/29 01:36:15;;;;;;;;;;;;;;;5.70;100.00;96775.22;5060161;28;19978;-78
2023/03/29 01:38:45;;;;;;;;;;;;;;;5.73;100.00;96745.41;5078395;28;19931;-77
2023/03/29 01:41:12;;;;;;;;;;;;;;;5.68;100.00;96753.19;5058316;28;19932;-77
2023/03/29 01:43:41;;;;;;;;;;;;;;;5.64;100.00;96754.56;5061812;28;19960;-77
2023/03/29 01:46:14;;;;;;;;;;;;;;;5.62;100.00;96748.56;5064342;28;19928;-77
2023/03/29 01:48:46;;;;;;;;;;;;;;;5.62;100.00;96740.53;5056467;28;19935;-77
2023/03/29 01:51:15;;;;;;;;;;;;;;;5.73;100.00;96732.00;5059259;28;19925;-77
2023/03/29 01:53:43;;;;;;;;;;;;;;;5.87;100.00;96739.13;5061500;28;19931;-77
2023/03/29 01:56:11;;;;;;;;;;;;;;;6.00;100.00;96741.16;5063913;28;19928;-78
2023/03/29 01:58:41;;;;;;;;;;;;;;;5.92;100.00;96728.72;5061721;28;19924;-77
2023/03/29 02:01:11;;;;;;;;;;;;;;;5.87;100.00;96727.63;5062240;28;20012;-77
2023/03/29 02:03:42;;;;;;;;;;;;;;;5.82;100.00;96722.81;5059712;28;19924;-77
2023/03/29 02:06:09;;;;;;;;;;;;;;;5.81;100.00;96726.50;5054876;28;19940;-77
2023/03/29 02:08:37;;;;;;;;;;;;;;;5.80;100.00;96715.97;5056177;28;19970;-77
2023/03/29 02:11:04;;;;;;;;;;;;;;;5.88;100.00;96689.09;5065460;28;19932;-77
2023/03/29 02:13:33;;;;;;;;;;;;;;;5.90;100.00;96703.97;5062584;28;19925;-79
2023/03/29 02:16:01;;;;;;;;;;;;;;;5.87;100.00;96698.13;5061535;28;19925;-77
2023/03/29 02:18:34;;;;;;;;;;;;;;;5.85;100.00;96687.59;5058908;28;19998;-78
2023/03/29 02:21:02;;;;;;;;;;;;;;;5.78;100.00;96701.97;5062361;28;19971;-77
2023/03/29 02:23:32;;;;;;;;;;;;;;;5.79;100.00;96688.34;5072549;28;19925;-78
2023/03/29 02:26:00;;;;;;;;;;;;;;;5.80;100.00;96730.22;5068198;28;19948;-77
2023/03/29 02:28:28;;;;;;;;;;;;;;;5.88;100.00;96721.25;5059349;28;19931;-77
2023/03/29 02:30:58;;;;;;;;;;;;;;;5.92;100.00;96722.53;5072883;28;20020;-77
2023/03/29 02:33:30;;;;;;;;;;;;;;;5.95;100.00;96712.28;5079971;28;19924;-78
2023/03/29 02:36:00;;;;;;;;;;;;;;;5.92;100.00;96696.56;5056493;28;19925;-77
2023/03/29 02:38:28;;;;;;;;;;;;;;;5.93;100.00;96698.22;5081463;28;19928;-78
2023/03/29 02:40:56;;;;;;;;;;;;;;;5.95;100.00;96706.91;5070906;28;20002;-78
2023/03/29 02:43:24;;;;;;;;;;;;;;;5.99;100.00;96705.47;5059183;28;19925;-78
2023/03/29 02:45:51;;;;;;;;;;;;;;;5.97;100.00;96675.34;5058194;28;19925;-78
2023/03/29 02:48:20;;;;;;;;;;;;;;;5.97;100.00;96661.94;5058793;28;19964;-78
2023/03/29 02:50:48;;;;;;;;;;;;;;;5.98;100.00;96650.22;5063555;28;19925;-77
2023/03/29 02:53:17;;;;;;;;;;;;;;;5.98;100.00;96652.91;5066521;28;19932;-77
2023/03/29 02:55:46;;;;;;;;;;;;;;;6.02;100.00;96640.78;5058241;28;20012;-77
2023/03/29 02:58:14;;;;;;;;;;;;;;;6.04;100.00;96657.47;5064435;28;19925;-77
2023/03/29 03:00:44;;;;;;;;;;;;;;;6.03;100.00;96655.84;5079970;28;19930;-78
2023/03/29 03:03:11;;;;;;;;;;;;;;;6.06;100.00;96647.38;5080468;28;19932;-78
2023/03/29 03:05:38;;;;;;;;;;;;;;;5.99;100.00;96630.44;5063182;28;19979;-77
2023/03/29 03:08:07;;;;;;;;;;;;;;;5.93;100.00;96623.19;5066393;28;19929;-77
2023/03/29 03:10:35;;;;;;;;;;;;;;;5.93;100.00;96622.34;5065419;28;19950;-77
2023/03/29 03:13:03;;;;;;;;;;;;;;;5.96;100.00;96622.78;5066350;28;19951;-78
2023/03/29 03:15:34;;;;;;;;;;;;;;;5.96;100.00;96611.22;5062881;28;19935;-78
2023/03/29 03:18:02;;;;;;;;;;;;;;;5.99;100.00;96600.94;5060515;28;19932;-77
2023/03/29 03:20:29;;;;;;;;;;;;;;;6.03;100.00;96591.50;5063925;28;19932;-78
2023/03/29 03:22:57;;;;;;;;;;;;;;;6.08;100.00;96588.22;5064430;28;20164;-78
2023/03/29 03:25:24;;;;;;;;;;;;;;;6.14;100.00;96608.03;5066129;28;19935;-77
2023/03/29 03:27:53;;;;;;;;;;;;;;;6.12;100.00;96604.75;5068846;28;19934;-78
2023/03/29 03:30:22;;;;;;;;;;;;;;;6.19;100.00;96613.66;5064535;28;19925;-77
2023/03/29 03:32:55;;;;;;;;;;;;;;;6.19;100.00;96601.09;5066460;28;20011;-77
2023/03/29 03:36:01;;;;;;;;;;;;;;;6.24;100.00;96624.63;5028257;28;19933;-78
2023/03/29 03:38:29;;;;;;;;;;;;;;;6.24;100.00;96622.75;5026858;28;19926;-78
2023/03/29 03:40:59;;;;;;;;;;;;;;;6.25;100.00;96610.19;5038137;28;19925;-77
2023/03/29 03:43:28;;;;;;;;;;;;;;;6.28;100.00;96615.16;5060553;28;19929;-77
2023/03/29 03:45:55;;;;;;;;;;;;;;;6.32;100.00;96600.31;5062657;28;19932;-77
2023/03/29 03:48:24;;;;;;;;;;;;;;;6.36;100.00;96597.06;5063932;28;19924;-77
2023/03/29 03:51:05;;;;;;;;;;;;;;;6.31;100.00;96583.41;5074675;28;19936;-78
2023/03/29 03:53:34;;;;;;;;;;;;;;;6.26;100.00;96585.03;5066780;28;19924;-78
2023/03/29 03:56:15;;;;;;;;;;;;;;;6.26;100.00;96582.34;5057031;28;20010;-77
2023/03/29 03:59:01;;;;;;;;;;;;;;;6.25;100.00;96565.44;5060506;28;19931;-77
2023/03/29 04:01:34;;;;;;;;;;;;;;;6.25;100.00;96561.91;5059357;28;19932;-77
2023/03/29 04:04:11;;;;;;;;;;;;;;;6.27;100.00;96575.97;5054071;28;19935;-77
2023/03/29 04:06:39;;;;;;;;;;;;;;;6.29;100.00;96573.91;5059341;28;20015;-78
2023/03/29 04:09:34;;;;;;;;;;;;;;;6.28;100.00;96572.25;5063414;28;19952;-78
2023/03/29 04:12:19;;;;;;;;;;;;;;;6.27;100.00;96549.97;5057840;28;19935;-78
2023/03/29 04:14:47;;;;;;;;;;;;;;;6.30;100.00;96562.13;5052197;28;19941;-77
2023/03/29 04:17:21;;;;;;;;;;;;;;;6.33;100.00;96572.50;5051756;28;19970;-78
2023/03/29 04:20:11;;;;;;;;;;;;;;;6.35;100.00;96582.00;5082673;28;19924;-77
2023/03/29 04:22:40;;;;;;;;;;;;;;;6.39;100.00;96579.72;5053180;28;19924;-78
2023/03/29 04:25:09;;;;;;;;;;;;;;;6.43;100.00;96594.41;5070128;28;19932;-77
2023/03/29 04:27:48;;;;;;;;;;;;;;;6.41;100.00;96589.25;5057649;28;20007;-78
2023/03/29 04:30:28;;;;;;;;;;;;;;;6.42;100.00;96600.81;5080516;28;19932;-78
2023/03/29 04:33:15;;;;;;;;;;;;;;;6.43;100.00;96597.09;5058378;28;19925;-77
2023/03/29 04:35:46;;;;;;;;;;;;;;;6.49;100.00;96596.28;5066408;28;19974;-78
2023/03/29 04:38:15;;;;;;;;;;;;;;;6.42;100.00;96587.38;5054847;28;19924;-78
2023/03/29 04:40:44;;;;;;;;;;;;;;;6.43;100.00;96602.47;5057956;28;19975;-78
2023/03/29 04:43:19;;;;;;;;;;;;;;;6.42;100.00;96609.69;5059878;28;19932;-77
2023/03/29 04:45:56;;;;;;;;;;;;;;;6.47;100.00;96603.69;5064697;28;19947;-77
2023/03/29 04:48:45;;;;;;;;;;;;;;;6.46;100.00;96604.75;5057811;28;19932;-77
2023/03/29 04:51:13;;;;;;;;;;;;;;;6.45;100.00;96595.06;5056649;28;19925;-77
2023/03/29 04:53:40;;;;;;;;;;;;;;;6.46;100.00;96597.50;5061384;28;19929;-77
2023/03/29 04:56:07;;;;;;;;;;;;;;;6.49;100.00;96601.66;5056888;28;19928;-77
2023/03/29 04:58:53;;;;;;;;;;;;;;;6.45;100.00;96611.97;5053609;28;20049;-78
2023/03/29 05:01:22;;;;;;;;;;;;;;;6.45;100.00;96606.59;5055462;28;19928;-77
2023/03/29 05:03:56;;;;;;;;;;;;;;;6.47;100.00;96607.22;5062948;28;20176;-77
2023/03/29 05:06:29;;;;;;;;;;;;;;;6.49;100.00;96615.06;5053721;28;19924;-77
2023/03/29 05:08:56;;;;;;;;;;;;;;;6.50;100.00;96624.78;5063628;28;19931;-77
2023/03/29 05:11:33;;;;;;;;;;;;;;;6.50;100.00;96653.47;5064505;28;19928;-78
2023/03/29 05:14:02;;;;;;;;;;;;;;;6.46;100.00;96647.69;5050765;28;19924;-77
2023/03/29 05:16:33;;;;;;;;;;;;;;;6.41;100.00;96636.69;5058465;28;19929;-77
2023/03/29 05:19:00;;;;;;;;;;;;;;;6.47;100.00;96639.41;5060945;28;19925;-77
2023/03/29 05:21:28;;;;;;;;;;;;;;;6.44;100.00;96639.81;5059563;28;19931;-77
2023/03/29 05:23:57;;;;;;;;;;;;;;;6.48;100.00;96661.69;5059909;28;19951;-77
2023/03/29 05:26:50;;;;;;;;;;;;;;;6.53;100.00;96658.44;5050012;28;20170;-78
2023/03/29 05:29:18;;;;;;;;;;;;;;;6.47;100.00;96652.81;5067877;28;19960;-77
2023/03/29 05:31:51;;;;;;;;;;;;;;;6.51;100.00;96652.44;5063049;28;19924;-78
2023/03/29 05:34:18;;;;;;;;;;;;;;;6.52;100.00;96654.09;5062771;28;19935;-78
2023/03/29 05:36:50;;;;;;;;;;;;;;;6.54;100.00;96663.63;5061019;28;19925;-77
2023/03/29 05:39:18;;;;;;;;;;;;;;;6.57;100.00;96659.69;5076393;28;19929;-78
2023/03/29 05:41:45;;;;;;;;;;;;;;;6.56;100.00;96664.22;5067449;28;19931;-77
2023/03/29 05:44:25;;;;;;;;;;;;;;;6.58;100.00;96675.59;5071781;28;19925;-77
2023/03/29 05:46:59;;;;;;;;;;;;;;;6.51;100.00;96669.38;5059022;28;19929;-78
2023/03/29 05:49:26;;;;;;;;;;;;;;;6.47;100.00;96678.81;5061180;28;19932;-78
2023/03/29 05:52:02;;;;;;;;;;;;;;;6.47;100.00;96697.59;5057557;28;19944;-79
2023/03/29 05:54:32;;;;;;;;;;;;;;;6.60;100.00;96684.28;5057287;28;19928;-78
2023/03/29 05:56:59;;;;;;;;;;;;;;;6.56;100.00;96683.00;5058238;28;19932;-77
2023/03/29 05:59:27;;;;;;;;;;;;;;;6.58;100.00;96680.97;5082623;28;20035;-78
2023/03/29 06:01:54;;;;;;;;;;;;;;;6.57;100.00;96683.84;5061119;28;20015;-77
2023/03/29 06:04:23;;;;;;;;;;;;;;;6.56;100.00;96690.22;5055910;28;19925;-78
2023/03/29 06:07:19;;;;;;;;;;;;;;;6.50;100.00;96691.84;5057144;28;19935;-79
2023/03/29 06:10:03;;;;;;;;;;;;;;;6.46;100.00;96691.41;5056586;28;19932;-77
2023/03/29 06:12:31;;;;;;;;;;;;;;;6.47;100.00;96684.19;5059513;28;19924;-77
2023/03/29 06:15:03;;;;;;;;;;;;;;;6.53;100.00;96686.09;5066969;28;19970;-77
2023/03/29 06:18:05;;;;;;;;;;;;;;;6.54;100.00;96687.75;5059881;28;20023;-77
2023/03/29 06:20:35;;;;;;;;;;;;;;;6.53;100.00;96685.28;5048092;28;20036;-79
2023/03/29 06:23:08;;;;;;;;;;;;;;;6.55;100.00;96673.28;5062059;28;19924;-77
2023/03/29 06:25:35;;;;;;;;;;;;;;;6.54;100.00;96668.16;5059320;28;19929;-77
2023/03/29 06:28:02;;;;;;;;;;;;;;;6.57;100.00;96655.16;5060440;28;19976;-77
2023/03/29 06:30:29;;;;;;;;;;;;;;;6.54;100.00;96663.63;5067092;28;20020;-78
2023/03/29 06:32:59;;;;;;;;;;;;;;;6.54;100.00;96668.16;5063643;28;19956;-77
2023/03/29 06:35:49;;;;;;;;;;;;;;;6.51;100.00;96671.22;5059217;28;19936;-77
2023/03/29 06:38:20;;;;;;;;;;;;;;;6.54;100.00;96668.97;5062981;28;19951;-77
2023/03/29 06:41:25;;;;;;;;;;;;;;;6.55;100.00;96672.50;5021813;28;19929;-78
2023/03/29 06:44:16;;;;;;;;;;;;;;;6.63;100.00;96673.16;5022314;28;19968;-77
2023/03/29 06:46:59;;;;;;;;;;;;;;;6.70;100.00;96690.13;5049308;28;19928;-77
2023/03/29 06:49:26;;;;;;;;;;;;;;;6.76;100.00;96693.88;5063160;28;19929;-78
2023/03/29 06:52:07;;;;;;;;;;;;;;;6.83;100.00;96692.88;5059975;28;19925;-77
2023/03/29 06:54:35;;;;;;;;;;;;;;;6.89;100.00;96677.03;5059857;28;19928;-79
2023/03/29 06:57:04;;;;;;;;;;;;;;;6.93;100.00;96691.69;5057701;28;19974;-77
2023/03/29 06:59:34;;;;;;;;;;;;;;;6.97;100.00;96671.47;5081805;28;19940;-77
2023/03/29 07:02:27;;;;;;;;;;;;;;;7.03;100.00;96673.34;5057443;28;19925;-77
2023/03/29 07:05:10;;;;;;;;;;;;;;;7.04;100.00;96685.75;5068617;28;19932;-76
2023/03/29 07:07:55;;;;;;;;;;;;;;;7.12;100.00;96683.72;5064124;28;19951;-77
2023/03/29 07:10:37;;;;;;;;;;;;;;;7.22;100.00;96686.88;5064703;28;19925;-77
2023/03/29 07:13:22;;;;;;;;;;;;;;;7.28;100.00;96681.72;5064534;28;19936;-77
2023/03/29 07:15:51;;;;;;;;;;;;;;;7.31;100.00;96698.28;5084294;28;20007;-77
2023/03/29 07:18:36;;;;;;;;;;;;;;;7.41;100.00;96681.75;5056160;28;19932;-79
2023/03/29 07:21:04;;;;;;;;;;;;;;;7.46;100.00;96679.28;5067769;28;19943;-77
2023/03/29 07:23:32;;;;;;;;;;;;;;;7.45;100.00;96688.38;5062868;28;19929;-77
2023/03/29 07:26:00;;;;;;;;;;;;;;;7.47;100.00;96686.31;5066920;28;19928;-77
2023/03/29 07:28:27;;;;;;;;;;;;;;;7.47;100.00;96687.16;5080268;28;19930;-77
2023/03/29 07:31:01;;;;;;;;;;;;;;;7.52;100.00;96695.44;5082046;28;20022;-78
2023/03/29 07:33:30;;;;;;;;;;;;;;;7.59;100.00;96698.13;5067466;28;19951;-78
2023/03/29 07:36:02;;;;;;;;;;;;;;;7.62;100.00;96700.41;5068165;28;19924;-78
2023/03/29 07:38:29;;;;;;;;;;;;;;;7.63;100.00;96707.44;5057930;28;19925;-78
2023/03/29 07:41:04;;;;;;;;;;;;;;;7.66;100.00;96722.31;5082569;28;19925;-78
2023/03/29 07:43:45;;;;;;;;;;;;;;;7.70;100.00;96716.34;5075873;28;19925;-77
2023/03/29 07:46:15;;;;;;;;;;;;;;;7.71;100.00;96725.25;5074064;28;19925;-77
2023/03/29 07:48:44;;;;;;;;;;;;;;;7.72;100.00;96733.13;5065717;28;19971;-77
2023/03/29 07:51:14;;;;;;;;;;;;;;;7.77;100.00;96725.25;5068200;28;19947;-77
2023/03/29 07:53:57;;;;;;;;;;;;;;;7.80;100.00;96724.03;5069281;28;19924;-78
2023/03/29 07:56:49;;;;;;;;;;;;;;;7.80;100.00;96724.84;5069480;28;19932;-77
2023/03/29 07:59:16;;;;;;;;;;;;;;;7.84;100.00;96719.88;5067536;28;20018;-78
2023/03/29 08:01:46;;;;;;;;;;;;;;;7.87;100.00;96725.69;5065221;28;19972;-78
2023/03/29 08:04:33;;;;;;;;;;;;;;;7.86;100.00;96740.16;5058911;28;20027;-78
2023/03/29 08:07:17;;;;;;;;;;;;;;;7.89;100.00;96744.31;5060742;28;19925;-77
2023/03/29 08:10:04;;;;;;;;;;;;;;;7.97;100.00;96736.88;5064638;28;19971;-78
2023/03/29 08:12:57;;;;;;;;;;;;;;;8.05;100.00;96741.25;5058030;28;19936;-77
2023/03/29 08:15:31;;;;;;;;;;;;;;;8.03;100.00;96742.47;5064312;28;19967;-78
2023/03/29 08:17:58;;;;;;;;;;;;;;;8.09;100.00;96745.16;5064490;28;19925;-78
2023/03/29 08:20:26;;;;;;;;;;;;;;;8.10;100.00;96741.44;5066444;28;19971;-78
2023/03/29 08:22:56;;;;;;;;;;;;;;;8.10;100.00;96752.19;5064171;28;19924;-77
2023/03/29 08:25:41;;;;;;;;;;;;;;;8.08;100.00;96738.13;5051166;28;19932;-77
2023/03/29 08:28:11;;;;;;;;;;;;;;;8.04;100.00;96730.69;5075388;28;19932;-77
2023/03/29 08:30:46;;;;;;;;;;;;;;;8.10;100.00;96737.91;5081752;28;20025;-78
2023/03/29 08:33:13;;;;;;;;;;;;;;;8.12;100.00;96738.56;5056202;28;19931;-78
2023/03/29 08:35:41;;;;;;;;;;;;;;;8.11;100.00;96726.97;5054795;28;20023;-78
2023/03/29 08:38:25;;;;;;;;;;;;;;;8.13;100.00;96750.97;5079334;28;19939;-78
2023/03/29 08:40:52;;;;;;;;;;;;;;;8.18;100.00;96754.69;5057778;28;19929;-77
2023/03/29 08:43:28;;;;;;;;;;;;;;;8.23;100.00;96749.53;5063549;28;20154;-77
2023/03/29 08:46:25;;;;;;;;;;;;;;;8.26;100.00;96743.72;5067970;28;20009;-77
2023/03/29 08:48:55;;;;;;;;;;;;;;;8.24;100.00;96745.81;5060256;28;19924;-77
2023/03/29 08:51:26;;;;;;;;;;;;;;;8.27;100.00;96742.69;5074476;28;19925;-77
2023/03/29 08:53:56;;;;;;;;;;;;;;;8.27;100.00;96731.09;5055480;28;19925;-77
2023/03/29 08:56:28;;;;;;;;;;;;;;;8.29;100.00;96729.88;5052476;28;19936;-77
2023/03/29 08:59:19;;;;;;;;;;;;;;;8.32;100.00;96726.81;5061430;28;19932;-77
2023/03/29 09:01:53;;;;;;;;;;;;;;;8.40;100.00;96744.63;5075246;28;20135;-77
2023/03/29 09:04:24;;;;;;;;;;;;;;;8.46;100.00;96748.31;5053888;28;19925;-77
2023/03/29 09:06:58;;;;;;;;;;;;;;;8.51;100.00;96748.53;5068678;28;19975;-77
2023/03/29 09:09:33;;;;;;;;;;;;;;;8.58;100.00;96750.22;5078307;28;19924;-78
2023/03/29 09:12:17;;;;;;;;;;;;;;;8.59;100.00;96753.72;5074365;28;19932;-78
2023/03/29 09:15:05;;;;;;;;;;;;;;;8.56;100.00;96763.03;5065915;28;19924;-77
2023/03/29 09:17:39;;;;;;;;;;;;;;;8.51;100.00;96764.66;5062076;28;19931;-77
2023/03/29 09:20:20;;;;;;;;;;;;;;;8.50;100.00;96779.19;5060067;28;19935;-78
2023/03/29 09:22:55;;;;;;;;;;;;;;;8.49;100.00;96786.44;5064416;28;19931;-79
2023/03/29 09:25:25;;;;;;;;;;;;;;;8.54;100.00;96785.81;5057515;28;20046;-79
2023/03/29 09:27:58;;;;;;;;;;;;;;;8.58;100.00;96777.13;5058667;28;20019;-78
2023/03/29 09:30:41;;;;;;;;;;;;;;;8.59;100.00;96759.09;5055175;28;19934;-81
2023/03/29 09:33:13;;;;;;;;;;;;;;;8.65;100.00;96740.25;5049499;28;19924;-80
2023/03/29 09:36:02;;;;;;;;;;;;;;;8.73;100.00;96726.56;5062124;28;20011;-80
2023/03/29 09:38:30;;;;;;;;;;;;;;;8.78;100.00;96736.69;5052111;28;19994;-76
2023/03/29 09:40:58;;;;;;;;;;;;;;;8.91;100.00;96742.09;5049391;28;19928;-81
2023/03/29 09:43:29;;;;;;;;;;;;;;;8.97;100.00;96737.72;5070384;28;19932;-79
2023/03/29 09:46:00;;;;;;;;;;;;;;;9.01;100.00;96734.41;5058685;28;19989;-79
2023/03/29 09:48:30;;;;;;;;;;;;;;;9.02;100.00;96736.03;5084077;28;19947;-80
2023/03/29 09:50:58;;;;;;;;;;;;;;;9.11;100.00;96763.56;5077302;28;20015;-79
2023/03/29 09:53:25;;;;;;;;;;;;;;;8.99;100.00;96784.97;5066680;28;19931;-79
2023/03/29 09:56:00;;;;;;;;;;;;;;;9.04;100.00;96784.31;5068205;28;19928;-78
2023/03/29 09:58:36;;;;;;;;;;;;;;;8.97;100.00;96781.63;5061611;28;19928;-78
2023/03/29 10:01:08;;;;;;;;;;;;;;;8.98;100.00;96788.69;5059196;28;19924;-78
2023/03/29 10:03:36;;;;;;;;;;;;;;;9.00;100.00;96778.53;5068564;28;19924;-78
2023/03/29 10:06:11;;;;;;;;;;;;;;;8.98;100.00;96767.13;5063494;28;19966;-77
2023/03/29 10:08:44;;;;;;;;;;;;;;;9.01;100.00;96765.91;5067730;28;19932;-77
2023/03/29 10:11:13;;;;;;;;;;;;;;;9.01;100.00;96769.41;5075539;28;19935;-78
2023/03/29 10:13:44;;;;;;;;;;;;;;;9.03;100.00;96772.72;5058809;28;19929;-78
2023/03/29 10:16:19;;;;;;;;;;;;;;;9.10;100.00;96757.34;5080603;28;19932;-79
2023/03/29 10:18:48;;;;;;;;;;;;;;;9.14;100.00;96738.91;5061285;28;19991;-77
2023/03/29 10:21:19;;;;;;;;;;;;;;;9.21;100.00;96726.25;5065629;28;19928;-78
2023/03/29 10:23:45;;;;;;;;;;;;;;;9.29;100.00;96717.09;5057591;28;19938;-78
2023/03/29 10:26:17;;;;;;;;;;;;;;;9.39;100.00;96725.56;5061386;28;19929;-78
2023/03/29 10:28:44;;;;;;;;;;;;;;;9.50;100.00;96716.81;5055809;28;19924;-78
2023/03/29 10:31:17;;;;;;;;;;;;;;;9.56;100.00;96710.56;5067883;28;19924;-78
2023/03/29 10:33:51;;;;;;;;;;;;;;;9.56;100.00;96710.56;5057447;28;19929;-79
2023/03/29 10:36:17;;;;;;;;;;;;;;;9.54;100.00;96704.53;5052888;28;19925;-77
2023/03/29 10:38:44;;;;;;;;;;;;;;;9.65;100.00;96698.47;5062485;28;19932;-78
2023/03/29 10:41:12;;;;;;;;;;;;;;;9.76;100.00;96705.88;5078112;28;19924;-79
2023/03/29 10:43:39;;;;;;;;;;;;;;;9.82;100.00;96704.19;5065464;28;20014;-79
2023/03/29 10:46:09;;;;;;;;;;;;;;;9.90;100.00;96690.44;5076156;28;19925;-80
2023/03/29 10:48:36;;;;;;;;;;;;;;;9.97;100.00;96674.22;5053453;28;19928;-79
2023/03/29 10:51:06;;;;;;;;;;;;;;;10.12;100.00;96680.13;5066009;28;19936;-79
2023/03/29 10:53:34;;;;;;;;;;;;;;;10.32;100.00;96672.72;5078296;28;19924;-79
2023/03/29 10:56:08;;;;;;;;;;;;;;;10.55;100.00;96666.69;5065289;28;19925;-78
2023/03/29 10:58:40;;;;;;;;;;;;;;;10.72;100.00;96678.56;5063582;28;19936;-78
2023/03/29 11:01:12;;;;;;;;;;;;;;;10.90;100.00;96653.44;5060374;28;19931;-79
2023/03/29 11:03:48;;;;;;;;;;;;;;;10.90;100.00;96665.09;5072179;28;20002;-78
2023/03/29 11:06:20;;;;;;;;;;;;;;;11.14;100.00;96649.03;5057991;28;19933;-78
2023/03/29 11:08:51;;;;;;;;;;;;;;;11.34;100.00;96649.59;5067011;28;19939;-79
2023/03/29 11:11:25;;;;;;;;;;;;;;;11.43;100.00;96659.06;5054769;28;19955;-79
2023/03/29 11:13:57;;;;;;;;;;;;;;;11.50;100.00;96640.84;5059769;28;19997;-79
2023/03/29 11:16:28;;;;;;;;;;;;;;;11.75;100.00;96638.03;5061240;28;19932;-78
2023/03/29 11:19:07;;;;;;;;;;;;;;;11.77;100.00;96632.41;5068831;28;19931;-79
2023/03/29 11:21:42;;;;;;;;;;;;;;;11.75;100.00;96629.94;5066735;28;19940;-79
2023/03/29 11:24:25;;;;;;;;;;;;;;;11.87;100.00;96619.97;5056477;28;19925;-79
2023/03/29 11:26:58;;;;;;;;;;;;;;;12.08;100.00;96619.41;5065334;28;19925;-78
2023/03/29 11:29:28;;;;;;;;;;;;;;;12.13;100.00;96624.97;5065650;28;19935;-80
2023/03/29 11:31:59;;;;;;;;;;;;;;;12.19;100.00;96627.78;5071776;28;19972;-80
2023/03/29 11:34:31;;;;;;;;;;;;;;;12.25;100.00;96635.78;5059046;28;19924;-79
2023/03/29 11:37:02;;;;;;;;;;;;;;;12.20;100.00;96632.97;5066859;28;19952;-79
2023/03/29 11:39:33;;;;;;;;;;;;;;;12.09;100.00;96639.19;5067979;28;20032;-78
2023/03/29 11:42:04;;;;;;;;;;;;;;;12.18;100.00;96655.91;5067421;28;19929;-78
2023/03/29 11:44:31;;;;;;;;;;;;;;;12.12;100.00;96647.69;5065270;28;19979;-76
2023/03/29 11:47:01;;;;;;;;;;;;;;;12.09;100.00;96637.31;5062408;28;19924;-77
2023/03/29 11:49:31;;;;;;;;;;;;;;;12.14;100.00;96636.63;5059956;28;19925;-78
2023/03/29 11:52:03;;;;;;;;;;;;;;;12.40;100.00;96627.22;5079203;28;19995;-78
2023/03/29 11:54:34;;;;;;;;;;;;;;;12.62;100.00;96628.28;5064547;28;20079;-78
2023/03/29 11:57:05;;;;;;;;;;;;;;;12.84;100.00;96612.25;5063984;28;19940;-78
2023/03/29 11:59:34;;;;;;;;;;;;;;;13.24;100.00;96601.47;5053368;28;19925;-79
2023/03/29 12:02:05;;;;;;;;;;;;;;;13.67;100.00;96600.13;5059970;28;19932;-78
2023/03/29 12:04:35;;;;;;;;;;;;;;;14.24;100.00;96614.41;5063157;28;19925;-79
2023/03/29 12:07:09;;;;;;;;;;;;;;;14.85;100.00;96624.34;5078614;28;19932;-78
2023/03/29 12:09:43;;;;;;;;;;;;;;;15.20;100.00;96643.03;5069546;28;19925;-80
2023/03/29 12:12:13;;;;;;;;;;;;;;;15.30;100.00;96623.31;5063999;28;19974;-80
2023/03/29 12:14:50;;;;;;;;;;;;;;;14.88;100.00;96607.53;5064290;28;19971;-79
2023/03/29 12:17:19;;;;;;;;;;;;;;;14.97;100.00;96600.56;5082919;28;20178;-79
2023/03/29 12:19:49;;;;;;;;;;;;;;;15.18;100.00;96604.38;5068299;28;19974;-78
2023/03/29 12:22:16;;;;;;;;;;;;;;;15.46;100.00;96611.53;5085020;28;20067;-79
2023/03/29 12:24:48;;;;;;;;;;;;;;;15.34;100.00;96599.94;5065450;28;20034;-79
2023/03/29 12:27:20;;;;;;;;;;;;;;;15.25;100.00;96599.56;5081965;28;20037;-78
2023/03/29 12:29:55;;;;;;;;;;;;;;;15.67;100.00;96583.47;5075412;28;19924;-80
2023/03/29 12:32:31;;;;;;;;;;;;;;;15.74;100.00;96573.19;5065111;28;19974;-80
2023/03/29 12:35:18;;;;;;;;;;;;;;;15.76;100.00;96571.03;5062138;28;20049;-80
2023/03/29 12:38:23;;;;;;;7.35;2.25;;;;;;;16.06;100.00;96573.25;5062918;28;20591;-80
2023/03/29 12:41:17;;;;;;;8.30;2.60;;;;;;;16.37;100.00;96560.69;5065428;28;20236;-79
2023/03/29 12:44:14;;;;;;;5.50;2.03;;;;;;;16.36;100.00;96561.75;5049308;28;20232;-80
2023/03/29 12:46:54;;;;;;;5.97;1.60;;;;;;;16.64;100.00;96557.91;5065676;28;20248;-80
2023/03/29 12:49:28;;;;;;;4.50;1.63;;;;;;;16.99;100.00;96524.53;5067386;28;20236;-80
2023/03/29 12:51:58;;;;;;;73.63;30.67;;;;;;;17.07;100.00;96543.13;5063398;28;20225;-79
2023/03/29 12:54:28;;;;;;;8.23;1.60;;;;;;;17.29;100.00;96524.63;5068678;28;20222;-79
2023/03/29 12:57:00;;;;;;;6.63;1.60;;;;;;;17.19;99.20;96523.78;5060533;28;20237;-79
2023/03/29 12:59:38;;;;;;;6.23;2.00;;;;;;;16.98;100.00;96541.97;5061148;28;20325;-80
2023/03/29 13:02:26;;;;;;;5.33;1.70;;;;;;;16.94;100.00;96554.50;5058666;28;20231;-81
2023/03/29 13:04:55;;;;;;;4.57;1.57;;;;;;;16.86;99.64;96527.72;5061126;28;20221;-80
2023/03/29 13:07:30;;;;;;;4.83;1.63;;;;;;;16.79;95.11;96527.16;5077786;28;20226;-79
2023/03/29 13:10:00;;;;;;;5.20;2.03;;;;;;;16.90;100.00;96537.03;5068230;28;20217;-77